Aeroporto :
LOGIN :

Iscrizione | Disclaimer

   EN    FR    IT 

 










Sommario :    VFR   VFR Marginale   IFR   IFR Intensivo   IFR Molto Intensivo
Visibilità : 
Base nubi : 
>= 8 km
>= 3000ft
5 / 8 km
1000 / 3000 ft
1500m / 5 km
500 / 1000 ft
800 / 1500m
200 / 500 ft
< 800m
< 200 ft
Simboli :   Temporali  Nebbia  Neve Forte  Precipitazioni Forti  Vento > 20 kt
SIGMETs :   Varie  Temporali  Ghiacco  Turbolenza  Onda orograficha  Ceneri Vulcaniche






- Altitudine del aeroporto : 290 ft
- Codice IATA : OSI


LDOS - Osijek

ULTIMO METAR :
  • 240900Z 28013KT 9999 BKN010 OVC030 09/06 Q1006

METARs OBSOLETI :
  • 240830Z 27014KT 9999 BKN008 OVC027 09/07 Q1005
  • 240800Z 28013KT 9999 BKN010 OVC030 09/07 Q1005
  • 240730Z 27013KT 9999 BKN007 OVC030 08/06 Q1005
  • 240700Z 28013KT 9999 BKN007 OVC030 08/07 Q1005
  • 240630Z 26013KT 7000 BKN005 OVC027 08/07 Q1005
  • 240600Z 26013KT 7000 BKN005 OVC027 08/07 Q1005
  • 240530Z 26013KT 9999 BKN005 OVC030 08/07 Q1005
  • 240500Z 27011KT 9999 BKN007 OVC030 08/07 Q1004
  • 240430Z 27011KT 9999 BKN010 OVC030 08/07 Q1004
  • 240400Z 26009KT 9999 BKN010 OVC030 09/08 Q1004

TAF AMD TAF LDOS
Valido dal 24 a 06 ore il 25 a 06 ore UTC


240529Z 2406/2506 28010KT 9999 BKN005 OVC030 TX13/2413Z TN03/2504Z
BECMG 2407/2409 SCT005 BKN030
BECMG 2422/2500 32004KT
PROB40
TEMPO 2501/2506 1200 BCFG



MetMap, La meteo Aeronautica in un colpo d'occhio ! - Copyright ORBIFLY Dicembre 2007 - Disclaimer

ORBIFLY MET'MAP TEAM :

Programmazione e sviluppo : Alexandra Zaïnal
Concezione : Baudouin d'Aumeries
Supporto tecnico e logistico : Manuel Goepfert
Aiuto : Marc-Olivier Méhu
Aiuto per la traduzione : Arnaldo La Scala




FONTI E CREDITI :

   NOAA